sensor_id;sensor_type;location;lat;lon;timestamp;temperature;humidity
65462;DHT22;53236;43.666;18.444;2023-08-30T00:02:00;15.90;99.90
65462;DHT22;53236;43.666;18.444;2023-08-30T00:04:26;15.90;99.90
65462;DHT22;53236;43.666;18.444;2023-08-30T00:06:52;15.90;99.90
65462;DHT22;53236;43.666;18.444;2023-08-30T00:09:17;16.00;99.90
65462;DHT22;53236;43.666;18.444;2023-08-30T00:11:43;16.00;99.90
65462;DHT22;53236;43.666;18.444;2023-08-30T00:14:09;16.00;99.90
65462;DHT22;53236;43.666;18.444;2023-08-30T00:16:36;16.10;99.90
65462;DHT22;53236;43.666;18.444;2023-08-30T00:19:03;16.10;99.90
65462;DHT22;53236;43.666;18.444;2023-08-30T00:21:29;16.00;99.90
65462;DHT22;53236;43.666;18.444;2023-08-30T00:23:55;16.00;99.90
65462;DHT22;53236;43.666;18.444;2023-08-30T00:26:21;15.90;99.90
65462;DHT22;53236;43.666;18.444;2023-08-30T00:28:47;15.80;99.90
65462;DHT22;53236;43.666;18.444;2023-08-30T00:31:13;15.70;99.90
65462;DHT22;53236;43.666;18.444;2023-08-30T00:33:38;15.60;99.90
65462;DHT22;53236;43.666;18.444;2023-08-30T00:36:04;15.60;99.90
65462;DHT22;53236;43.666;18.444;2023-08-30T00:38:33;15.70;99.90
65462;DHT22;53236;43.666;18.444;2023-08-30T00:40:59;15.60;99.90
65462;DHT22;53236;43.666;18.444;2023-08-30T00:43:24;15.60;99.90
65462;DHT22;53236;43.666;18.444;2023-08-30T00:45:50;15.60;99.90
65462;DHT22;53236;43.666;18.444;2023-08-30T00:48:18;15.50;99.90
65462;DHT22;53236;43.666;18.444;2023-08-30T00:50:45;15.40;99.90
65462;DHT22;53236;43.666;18.444;2023-08-30T00:53:11;15.30;99.90
65462;DHT22;53236;43.666;18.444;2023-08-30T00:55:37;15.20;99.90
65462;DHT22;53236;43.666;18.444;2023-08-30T00:58:05;15.10;99.90
65462;DHT22;53236;43.666;18.444;2023-08-30T01:00:31;15.00;99.90
65462;DHT22;53236;43.666;18.444;2023-08-30T01:02:57;14.90;99.90
65462;DHT22;53236;43.666;18.444;2023-08-30T01:05:23;15.00;99.90
65462;DHT22;53236;43.666;18.444;2023-08-30T01:07:51;15.20;99.90
65462;DHT22;53236;43.666;18.444;2023-08-30T01:10:18;15.20;99.90
65462;DHT22;53236;43.666;18.444;2023-08-30T01:12:48;15.20;99.90
65462;DHT22;53236;43.666;18.444;2023-08-30T01:15:22;15.30;99.90
65462;DHT22;53236;43.666;18.444;2023-08-30T01:17:48;15.40;99.90
65462;DHT22;53236;43.666;18.444;2023-08-30T01:20:17;15.40;99.90
65462;DHT22;53236;43.666;18.444;2023-08-30T01:23:06;15.50;99.90
65462;DHT22;53236;43.666;18.444;2023-08-30T01:26:13;15.60;99.90
65462;DHT22;53236;43.666;18.444;2023-08-30T01:28:41;15.70;99.90
65462;DHT22;53236;43.666;18.444;2023-08-30T01:31:08;15.70;99.90
65462;DHT22;53236;43.666;18.444;2023-08-30T01:33:35;15.70;99.90
65462;DHT22;53236;43.666;18.444;2023-08-30T01:36:02;15.70;99.90
65462;DHT22;53236;43.666;18.444;2023-08-30T01:38:29;15.70;99.90
65462;DHT22;53236;43.666;18.444;2023-08-30T01:40:58;15.50;99.90
65462;DHT22;53236;43.666;18.444;2023-08-30T01:43:26;15.30;99.90
65462;DHT22;53236;43.666;18.444;2023-08-30T01:45:54;15.40;99.90
65462;DHT22;53236;43.666;18.444;2023-08-30T01:48:22;15.50;99.90
65462;DHT22;53236;43.666;18.444;2023-08-30T01:50:49;15.50;99.90
65462;DHT22;53236;43.666;18.444;2023-08-30T01:53:15;15.40;99.90
65462;DHT22;53236;43.666;18.444;2023-08-30T01:55:42;15.40;99.90
65462;DHT22;53236;43.666;18.444;2023-08-30T01:58:08;15.30;99.90
65462;DHT22;53236;43.666;18.444;2023-08-30T02:00:38;15.20;99.90
65462;DHT22;53236;43.666;18.444;2023-08-30T02:03:11;15.20;99.90
65462;DHT22;53236;43.666;18.444;2023-08-30T02:08:38;15.10;99.90
65462;DHT22;53236;43.666;18.444;2023-08-30T02:11:11;15.00;99.90
65462;DHT22;53236;43.666;18.444;2023-08-30T02:13:39;14.90;99.90
65462;DHT22;53236;43.666;18.444;2023-08-30T02:16:07;14.80;99.90
65462;DHT22;53236;43.666;18.444;2023-08-30T02:18:35;14.90;99.90
65462;DHT22;53236;43.666;18.444;2023-08-30T02:21:01;14.90;99.90
65462;DHT22;53236;43.666;18.444;2023-08-30T02:23:27;14.90;99.90
65462;DHT22;53236;43.666;18.444;2023-08-30T02:25:54;15.00;99.90
65462;DHT22;53236;43.666;18.444;2023-08-30T02:28:21;14.90;99.90
65462;DHT22;53236;43.666;18.444;2023-08-30T02:30:46;14.90;99.90
65462;DHT22;53236;43.666;18.444;2023-08-30T02:33:12;15.00;99.90
65462;DHT22;53236;43.666;18.444;2023-08-30T02:35:39;15.10;99.90
65462;DHT22;53236;43.666;18.444;2023-08-30T02:38:05;15.00;99.90
65462;DHT22;53236;43.666;18.444;2023-08-30T02:40:31;15.10;99.90
65462;DHT22;53236;43.666;18.444;2023-08-30T02:42:57;15.10;99.90
65462;DHT22;53236;43.666;18.444;2023-08-30T02:45:23;15.10;99.90
65462;DHT22;53236;43.666;18.444;2023-08-30T02:47:48;15.10;99.90
65462;DHT22;53236;43.666;18.444;2023-08-30T02:50:14;15.20;99.90
65462;DHT22;53236;43.666;18.444;2023-08-30T02:52:40;15.20;99.90
65462;DHT22;53236;43.666;18.444;2023-08-30T02:55:06;15.20;99.90
65462;DHT22;53236;43.666;18.444;2023-08-30T02:57:32;15.20;99.90
65462;DHT22;53236;43.666;18.444;2023-08-30T02:59:57;15.10;99.90
65462;DHT22;53236;43.666;18.444;2023-08-30T03:02:23;15.00;99.90
65462;DHT22;53236;43.666;18.444;2023-08-30T03:04:49;15.10;99.90
65462;DHT22;53236;43.666;18.444;2023-08-30T03:07:14;15.10;99.90
65462;DHT22;53236;43.666;18.444;2023-08-30T03:09:40;15.20;99.90
65462;DHT22;53236;43.666;18.444;2023-08-30T03:12:06;15.20;99.90
65462;DHT22;53236;43.666;18.444;2023-08-30T03:14:32;15.10;99.90
65462;DHT22;53236;43.666;18.444;2023-08-30T03:16:58;15.20;99.90
65462;DHT22;53236;43.666;18.444;2023-08-30T03:19:23;15.10;99.90
65462;DHT22;53236;43.666;18.444;2023-08-30T03:21:49;15.00;99.90
65462;DHT22;53236;43.666;18.444;2023-08-30T03:24:15;15.00;99.90
65462;DHT22;53236;43.666;18.444;2023-08-30T03:26:43;15.00;99.90
65462;DHT22;53236;43.666;18.444;2023-08-30T03:29:09;15.00;99.90
65462;DHT22;53236;43.666;18.444;2023-08-30T03:31:34;15.10;99.90
65462;DHT22;53236;43.666;18.444;2023-08-30T03:34:00;15.10;99.90
65462;DHT22;53236;43.666;18.444;2023-08-30T03:36:27;15.00;99.90
65462;DHT22;53236;43.666;18.444;2023-08-30T03:38:53;14.70;99.90
65462;DHT22;53236;43.666;18.444;2023-08-30T03:41:19;14.60;99.90
65462;DHT22;53236;43.666;18.444;2023-08-30T03:43:45;14.50;99.90
65462;DHT22;53236;43.666;18.444;2023-08-30T03:46:10;14.10;99.90
65462;DHT22;53236;43.666;18.444;2023-08-30T03:48:37;14.10;99.90
65462;DHT22;53236;43.666;18.444;2023-08-30T03:51:03;14.10;99.90
65462;DHT22;53236;43.666;18.444;2023-08-30T03:53:28;14.10;99.90
65462;DHT22;53236;43.666;18.444;2023-08-30T03:55:55;14.00;99.90
65462;DHT22;53236;43.666;18.444;2023-08-30T03:58:21;14.00;99.90
65462;DHT22;53236;43.666;18.444;2023-08-30T04:00:47;13.90;99.90
65462;DHT22;53236;43.666;18.444;2023-08-30T04:03:14;13.90;99.90
65462;DHT22;53236;43.666;18.444;2023-08-30T04:05:41;13.90;99.90
65462;DHT22;53236;43.666;18.444;2023-08-30T04:08:07;13.90;99.90
65462;DHT22;53236;43.666;18.444;2023-08-30T04:10:37;13.80;99.90
65462;DHT22;53236;43.666;18.444;2023-08-30T04:13:04;13.70;99.90
65462;DHT22;53236;43.666;18.444;2023-08-30T04:15:33;13.70;99.90
65462;DHT22;53236;43.666;18.444;2023-08-30T04:17:59;13.70;99.90
65462;DHT22;53236;43.666;18.444;2023-08-30T04:20:25;13.70;99.90
65462;DHT22;53236;43.666;18.444;2023-08-30T04:22:51;13.70;99.90
65462;DHT22;53236;43.666;18.444;2023-08-30T04:25:16;13.90;99.90
65462;DHT22;53236;43.666;18.444;2023-08-30T04:27:42;13.90;99.90
65462;DHT22;53236;43.666;18.444;2023-08-30T04:30:10;14.00;99.90
65462;DHT22;53236;43.666;18.444;2023-08-30T04:32:36;14.10;99.90
65462;DHT22;53236;43.666;18.444;2023-08-30T04:35:01;14.30;99.90
65462;DHT22;53236;43.666;18.444;2023-08-30T04:37:30;14.30;99.90
65462;DHT22;53236;43.666;18.444;2023-08-30T04:39:57;14.40;99.90
65462;DHT22;53236;43.666;18.444;2023-08-30T04:42:23;14.50;99.90
65462;DHT22;53236;43.666;18.444;2023-08-30T04:44:49;14.50;99.90
65462;DHT22;53236;43.666;18.444;2023-08-30T04:47:15;14.60;99.90
65462;DHT22;53236;43.666;18.444;2023-08-30T04:49:40;14.60;99.90
65462;DHT22;53236;43.666;18.444;2023-08-30T04:52:06;14.60;99.90
65462;DHT22;53236;43.666;18.444;2023-08-30T04:54:32;14.60;99.90
65462;DHT22;53236;43.666;18.444;2023-08-30T04:56:58;14.60;99.90
65462;DHT22;53236;43.666;18.444;2023-08-30T04:59:23;14.50;99.90
65462;DHT22;53236;43.666;18.444;2023-08-30T05:01:49;14.50;99.90
65462;DHT22;53236;43.666;18.444;2023-08-30T05:04:17;14.50;99.90
65462;DHT22;53236;43.666;18.444;2023-08-30T05:06:43;14.50;99.90
65462;DHT22;53236;43.666;18.444;2023-08-30T05:09:09;14.50;99.90
65462;DHT22;53236;43.666;18.444;2023-08-30T05:11:34;14.50;99.90
65462;DHT22;53236;43.666;18.444;2023-08-30T05:14:00;14.50;99.90
65462;DHT22;53236;43.666;18.444;2023-08-30T05:16:26;14.60;99.90
65462;DHT22;53236;43.666;18.444;2023-08-30T05:18:52;14.60;99.90
65462;DHT22;53236;43.666;18.444;2023-08-30T05:21:17;14.50;99.90
65462;DHT22;53236;43.666;18.444;2023-08-30T05:23:43;14.60;99.90
65462;DHT22;53236;43.666;18.444;2023-08-30T05:26:10;14.70;99.90
65462;DHT22;53236;43.666;18.444;2023-08-30T05:28:39;14.70;99.90
65462;DHT22;53236;43.666;18.444;2023-08-30T05:31:04;14.70;99.90
65462;DHT22;53236;43.666;18.444;2023-08-30T05:33:31;14.70;99.90
65462;DHT22;53236;43.666;18.444;2023-08-30T05:35:57;14.70;99.90
65462;DHT22;53236;43.666;18.444;2023-08-30T05:38:22;14.70;99.90
65462;DHT22;53236;43.666;18.444;2023-08-30T05:40:48;14.80;99.90
65462;DHT22;53236;43.666;18.444;2023-08-30T05:43:14;15.00;99.90
65462;DHT22;53236;43.666;18.444;2023-08-30T05:45:41;15.10;99.90
65462;DHT22;53236;43.666;18.444;2023-08-30T05:48:07;15.30;99.90
65462;DHT22;53236;43.666;18.444;2023-08-30T05:50:33;15.60;99.90
65462;DHT22;53236;43.666;18.444;2023-08-30T05:52:58;16.00;99.90
65462;DHT22;53236;43.666;18.444;2023-08-30T05:55:24;16.50;99.90
65462;DHT22;53236;43.666;18.444;2023-08-30T05:57:50;17.20;99.90
65462;DHT22;53236;43.666;18.444;2023-08-30T06:00:16;19.60;99.90
65462;DHT22;53236;43.666;18.444;2023-08-30T06:02:42;21.90;87.10
65462;DHT22;53236;43.666;18.444;2023-08-30T06:05:08;24.30;71.10
65462;DHT22;53236;43.666;18.444;2023-08-30T06:07:34;26.00;68.40
65462;DHT22;53236;43.666;18.444;2023-08-30T06:09:59;27.00;62.50
65462;DHT22;53236;43.666;18.444;2023-08-30T06:12:25;28.90;60.30
65462;DHT22;53236;43.666;18.444;2023-08-30T06:14:52;30.70;57.10
65462;DHT22;53236;43.666;18.444;2023-08-30T06:17:19;32.20;52.50
65462;DHT22;53236;43.666;18.444;2023-08-30T06:19:45;32.90;49.40
65462;DHT22;53236;43.666;18.444;2023-08-30T06:22:12;33.40;48.70
65462;DHT22;53236;43.666;18.444;2023-08-30T06:24:38;34.60;47.40
65462;DHT22;53236;43.666;18.444;2023-08-30T06:27:04;34.50;45.00
65462;DHT22;53236;43.666;18.444;2023-08-30T06:29:30;33.70;46.80
65462;DHT22;53236;43.666;18.444;2023-08-30T06:31:55;34.30;46.00
65462;DHT22;53236;43.666;18.444;2023-08-30T06:34:21;35.30;45.20
65462;DHT22;53236;43.666;18.444;2023-08-30T06:36:47;36.60;43.20
65462;DHT22;53236;43.666;18.444;2023-08-30T06:39:13;38.30;42.00
65462;DHT22;53236;43.666;18.444;2023-08-30T06:41:39;38.30;42.20
65462;DHT22;53236;43.666;18.444;2023-08-30T06:44:05;37.20;41.40
65462;DHT22;53236;43.666;18.444;2023-08-30T06:46:31;37.50;40.10
65462;DHT22;53236;43.666;18.444;2023-08-30T06:48:57;35.80;41.50
65462;DHT22;53236;43.666;18.444;2023-08-30T06:51:22;35.60;40.70
65462;DHT22;53236;43.666;18.444;2023-08-30T06:53:48;35.40;42.30
65462;DHT22;53236;43.666;18.444;2023-08-30T06:56:14;36.80;41.00
65462;DHT22;53236;43.666;18.444;2023-08-30T06:58:40;36.00;40.70
65462;DHT22;53236;43.666;18.444;2023-08-30T07:01:10;35.50;39.40
65462;DHT22;53236;43.666;18.444;2023-08-30T07:03:36;35.50;40.80
65462;DHT22;53236;43.666;18.444;2023-08-30T07:06:02;36.30;40.90
65462;DHT22;53236;43.666;18.444;2023-08-30T07:08:27;35.80;39.70
65462;DHT22;53236;43.666;18.444;2023-08-30T07:10:53;35.80;38.60
65462;DHT22;53236;43.666;18.444;2023-08-30T07:13:19;34.20;38.50
65462;DHT22;53236;43.666;18.444;2023-08-30T07:15:46;32.20;40.20
65462;DHT22;53236;43.666;18.444;2023-08-30T07:18:12;32.70;41.30
65462;DHT22;53236;43.666;18.444;2023-08-30T07:20:39;33.60;39.90
65462;DHT22;53236;43.666;18.444;2023-08-30T07:23:04;34.20;38.90
65462;DHT22;53236;43.666;18.444;2023-08-30T07:25:30;34.50;39.20
65462;DHT22;53236;43.666;18.444;2023-08-30T07:27:59;34.90;38.60
65462;DHT22;53236;43.666;18.444;2023-08-30T07:30:25;35.80;39.20
65462;DHT22;53236;43.666;18.444;2023-08-30T07:32:51;37.80;39.40
65462;DHT22;53236;43.666;18.444;2023-08-30T07:35:17;37.30;37.40
65462;DHT22;53236;43.666;18.444;2023-08-30T07:37:43;36.40;38.10
65462;DHT22;53236;43.666;18.444;2023-08-30T07:40:09;36.60;37.70
65462;DHT22;53236;43.666;18.444;2023-08-30T07:42:35;36.30;36.40
65462;DHT22;53236;43.666;18.444;2023-08-30T07:45:01;37.10;37.00
65462;DHT22;53236;43.666;18.444;2023-08-30T07:47:26;36.90;36.40
65462;DHT22;53236;43.666;18.444;2023-08-30T07:49:52;38.60;36.50
65462;DHT22;53236;43.666;18.444;2023-08-30T07:52:18;40.20;36.70
65462;DHT22;53236;43.666;18.444;2023-08-30T07:54:43;39.30;35.50
65462;DHT22;53236;43.666;18.444;2023-08-30T07:57:09;38.40;35.60
65462;DHT22;53236;43.666;18.444;2023-08-30T07:59:36;38.20;35.40
65462;DHT22;53236;43.666;18.444;2023-08-30T08:02:05;38.30;35.50
65462;DHT22;53236;43.666;18.444;2023-08-30T08:04:33;38.50;36.90
65462;DHT22;53236;43.666;18.444;2023-08-30T08:06:59;37.30;36.30
65462;DHT22;53236;43.666;18.444;2023-08-30T08:09:25;36.80;37.00
65462;DHT22;53236;43.666;18.444;2023-08-30T08:11:51;37.70;37.00
65462;DHT22;53236;43.666;18.444;2023-08-30T08:14:17;38.60;36.30
65462;DHT22;53236;43.666;18.444;2023-08-30T08:16:42;38.30;35.80
65462;DHT22;53236;43.666;18.444;2023-08-30T08:19:08;37.30;36.30
65462;DHT22;53236;43.666;18.444;2023-08-30T08:21:34;38.20;36.60
65462;DHT22;53236;43.666;18.444;2023-08-30T08:24:00;36.60;37.90
65462;DHT22;53236;43.666;18.444;2023-08-30T08:26:26;36.70;36.60
65462;DHT22;53236;43.666;18.444;2023-08-30T08:28:53;36.30;37.30
65462;DHT22;53236;43.666;18.444;2023-08-30T08:31:18;34.80;37.50
65462;DHT22;53236;43.666;18.444;2023-08-30T08:33:44;34.20;38.00
65462;DHT22;53236;43.666;18.444;2023-08-30T08:36:10;32.80;40.70
65462;DHT22;53236;43.666;18.444;2023-08-30T08:38:36;31.90;41.70
65462;DHT22;53236;43.666;18.444;2023-08-30T08:41:07;30.90;42.90
65462;DHT22;53236;43.666;18.444;2023-08-30T08:43:37;29.60;42.90
65462;DHT22;53236;43.666;18.444;2023-08-30T08:46:06;28.50;46.20
65462;DHT22;53236;43.666;18.444;2023-08-30T08:48:37;28.20;46.50
65462;DHT22;53236;43.666;18.444;2023-08-30T08:51:05;27.40;46.40
65462;DHT22;53236;43.666;18.444;2023-08-30T08:53:31;26.70;47.80
65462;DHT22;53236;43.666;18.444;2023-08-30T08:55:58;26.80;48.80
65462;DHT22;53236;43.666;18.444;2023-08-30T08:58:24;28.00;46.80
65462;DHT22;53236;43.666;18.444;2023-08-30T09:00:51;29.20;46.40
65462;DHT22;53236;43.666;18.444;2023-08-30T09:03:18;30.50;45.60
65462;DHT22;53236;43.666;18.444;2023-08-30T09:05:45;30.70;43.70
65462;DHT22;53236;43.666;18.444;2023-08-30T09:08:12;29.90;44.70
65462;DHT22;53236;43.666;18.444;2023-08-30T09:10:40;29.50;46.10
65462;DHT22;53236;43.666;18.444;2023-08-30T09:13:06;28.20;47.10
65462;DHT22;53236;43.666;18.444;2023-08-30T09:15:32;29.20;46.60
65462;DHT22;53236;43.666;18.444;2023-08-30T09:17:58;28.30;47.70
65462;DHT22;53236;43.666;18.444;2023-08-30T09:20:24;27.00;49.40
65462;DHT22;53236;43.666;18.444;2023-08-30T09:22:50;26.00;51.00
65462;DHT22;53236;43.666;18.444;2023-08-30T09:25:28;25.00;53.00
65462;DHT22;53236;43.666;18.444;2023-08-30T09:27:58;24.30;53.10
65462;DHT22;53236;43.666;18.444;2023-08-30T09:30:24;24.10;54.90
65462;DHT22;53236;43.666;18.444;2023-08-30T09:32:51;23.70;54.60
65462;DHT22;53236;43.666;18.444;2023-08-30T09:35:16;23.70;56.20
65462;DHT22;53236;43.666;18.444;2023-08-30T09:37:45;23.40;56.10
65462;DHT22;53236;43.666;18.444;2023-08-30T09:40:11;23.50;56.90
65462;DHT22;53236;43.666;18.444;2023-08-30T09:42:41;23.60;55.20
65462;DHT22;53236;43.666;18.444;2023-08-30T09:45:23;23.60;56.30
65462;DHT22;53236;43.666;18.444;2023-08-30T09:47:50;23.80;53.60
65462;DHT22;53236;43.666;18.444;2023-08-30T09:50:20;23.90;54.30
65462;DHT22;53236;43.666;18.444;2023-08-30T09:52:47;24.10;52.80
65462;DHT22;53236;43.666;18.444;2023-08-30T09:55:15;24.50;53.40
65462;DHT22;53236;43.666;18.444;2023-08-30T09:57:44;25.00;54.60
65462;DHT22;53236;43.666;18.444;2023-08-30T10:00:11;25.40;51.10
65462;DHT22;53236;43.666;18.444;2023-08-30T10:02:43;26.40;53.70
65462;DHT22;53236;43.666;18.444;2023-08-30T10:05:12;27.10;52.20
65462;DHT22;53236;43.666;18.444;2023-08-30T10:07:39;26.60;49.70
65462;DHT22;53236;43.666;18.444;2023-08-30T10:10:05;26.20;50.20
65462;DHT22;53236;43.666;18.444;2023-08-30T10:12:34;26.00;49.90
65462;DHT22;53236;43.666;18.444;2023-08-30T10:15:00;25.50;50.70
65462;DHT22;53236;43.666;18.444;2023-08-30T10:17:32;25.50;50.90
65462;DHT22;53236;43.666;18.444;2023-08-30T10:20:04;25.30;51.50
65462;DHT22;53236;43.666;18.444;2023-08-30T10:22:32;25.00;52.50
65462;DHT22;53236;43.666;18.444;2023-08-30T10:25:04;25.10;51.90
65462;DHT22;53236;43.666;18.444;2023-08-30T10:27:33;25.20;53.40
65462;DHT22;53236;43.666;18.444;2023-08-30T10:30:01;24.90;52.40
65462;DHT22;53236;43.666;18.444;2023-08-30T10:32:28;24.30;51.70
65462;DHT22;53236;43.666;18.444;2023-08-30T10:34:53;24.00;54.20
65462;DHT22;53236;43.666;18.444;2023-08-30T10:37:24;24.00;53.40
65462;DHT22;53236;43.666;18.444;2023-08-30T10:39:50;24.00;53.90
65462;DHT22;53236;43.666;18.444;2023-08-30T10:42:17;24.10;53.70
65462;DHT22;53236;43.666;18.444;2023-08-30T10:44:57;24.20;54.70
65462;DHT22;53236;43.666;18.444;2023-08-30T10:47:27;24.30;55.00
65462;DHT22;53236;43.666;18.444;2023-08-30T10:49:57;24.30;55.10
65462;DHT22;53236;43.666;18.444;2023-08-30T10:52:24;24.40;54.80
65462;DHT22;53236;43.666;18.444;2023-08-30T10:54:50;24.60;54.70
65462;DHT22;53236;43.666;18.444;2023-08-30T10:57:23;24.50;53.60
65462;DHT22;53236;43.666;18.444;2023-08-30T11:00:18;24.50;53.60
65462;DHT22;53236;43.666;18.444;2023-08-30T11:02:46;24.80;54.60
65462;DHT22;53236;43.666;18.444;2023-08-30T11:05:12;24.70;54.00
65462;DHT22;53236;43.666;18.444;2023-08-30T11:07:38;24.60;52.70
65462;DHT22;53236;43.666;18.444;2023-08-30T11:10:05;24.90;54.10
65462;DHT22;53236;43.666;18.444;2023-08-30T11:12:32;25.00;55.80
65462;DHT22;53236;43.666;18.444;2023-08-30T11:14:57;25.20;52.90
65462;DHT22;53236;43.666;18.444;2023-08-30T11:17:23;25.70;51.60
65462;DHT22;53236;43.666;18.444;2023-08-30T11:19:51;25.90;50.80
65462;DHT22;53236;43.666;18.444;2023-08-30T11:22:17;26.10;50.40
65462;DHT22;53236;43.666;18.444;2023-08-30T11:24:43;26.50;51.10
65462;DHT22;53236;43.666;18.444;2023-08-30T11:27:11;26.40;51.60
65462;DHT22;53236;43.666;18.444;2023-08-30T11:29:39;26.10;50.00
65462;DHT22;53236;43.666;18.444;2023-08-30T11:32:07;26.10;50.90
65462;DHT22;53236;43.666;18.444;2023-08-30T11:34:33;26.30;50.80
65462;DHT22;53236;43.666;18.444;2023-08-30T11:36:59;26.10;48.90
65462;DHT22;53236;43.666;18.444;2023-08-30T11:39:28;26.40;49.00
65462;DHT22;53236;43.666;18.444;2023-08-30T11:41:54;26.50;49.20
65462;DHT22;53236;43.666;18.444;2023-08-30T11:44:23;25.70;48.30
65462;DHT22;53236;43.666;18.444;2023-08-30T11:46:57;25.50;49.60
65462;DHT22;53236;43.666;18.444;2023-08-30T11:49:22;25.40;52.10
65462;DHT22;53236;43.666;18.444;2023-08-30T11:51:48;24.60;53.70
65462;DHT22;53236;43.666;18.444;2023-08-30T11:54:14;24.00;56.00
65462;DHT22;53236;43.666;18.444;2023-08-30T11:56:40;23.20;57.40
65462;DHT22;53236;43.666;18.444;2023-08-30T11:59:07;22.70;58.90
65462;DHT22;53236;43.666;18.444;2023-08-30T12:01:43;22.20;59.90
65462;DHT22;53236;43.666;18.444;2023-08-30T12:04:10;21.60;61.60
65462;DHT22;53236;43.666;18.444;2023-08-30T12:06:36;21.40;61.70
65462;DHT22;53236;43.666;18.444;2023-08-30T12:09:02;21.30;62.90
65462;DHT22;53236;43.666;18.444;2023-08-30T12:11:31;21.30;61.90
65462;DHT22;53236;43.666;18.444;2023-08-30T12:14:06;21.30;62.70
65462;DHT22;53236;43.666;18.444;2023-08-30T12:16:32;21.40;63.00
65462;DHT22;53236;43.666;18.444;2023-08-30T12:19:07;21.70;63.40
65462;DHT22;53236;43.666;18.444;2023-08-30T12:21:43;21.80;61.20
65462;DHT22;53236;43.666;18.444;2023-08-30T12:24:10;22.00;61.60
65462;DHT22;53236;43.666;18.444;2023-08-30T12:26:36;22.20;60.90
65462;DHT22;53236;43.666;18.444;2023-08-30T12:29:05;22.30;61.60
65462;DHT22;53236;43.666;18.444;2023-08-30T12:31:33;22.50;63.40
65462;DHT22;53236;43.666;18.444;2023-08-30T12:33:59;22.50;61.50
65462;DHT22;53236;43.666;18.444;2023-08-30T12:36:25;22.60;59.20
65462;DHT22;53236;43.666;18.444;2023-08-30T12:38:51;22.50;58.70
65462;DHT22;53236;43.666;18.444;2023-08-30T12:41:17;22.60;60.80
65462;DHT22;53236;43.666;18.444;2023-08-30T12:43:43;22.80;60.50
65462;DHT22;53236;43.666;18.444;2023-08-30T12:46:09;23.00;58.00
65462;DHT22;53236;43.666;18.444;2023-08-30T12:48:34;23.00;59.20
65462;DHT22;53236;43.666;18.444;2023-08-30T12:51:00;23.10;57.50
65462;DHT22;53236;43.666;18.444;2023-08-30T12:53:26;23.10;59.80
65462;DHT22;53236;43.666;18.444;2023-08-30T12:55:52;23.30;61.10
65462;DHT22;53236;43.666;18.444;2023-08-30T12:58:17;23.60;59.20
65462;DHT22;53236;43.666;18.444;2023-08-30T13:00:43;23.70;59.10
65462;DHT22;53236;43.666;18.444;2023-08-30T13:03:09;23.70;58.90
65462;DHT22;53236;43.666;18.444;2023-08-30T13:05:34;23.90;58.00
65462;DHT22;53236;43.666;18.444;2023-08-30T13:08:02;24.10;58.50
65462;DHT22;53236;43.666;18.444;2023-08-30T13:10:28;24.10;57.70
65462;DHT22;53236;43.666;18.444;2023-08-30T13:12:53;23.90;56.50
65462;DHT22;53236;43.666;18.444;2023-08-30T13:15:19;23.40;55.30
65462;DHT22;53236;43.666;18.444;2023-08-30T13:17:45;22.90;57.50
65462;DHT22;53236;43.666;18.444;2023-08-30T13:20:11;22.60;58.30
65462;DHT22;53236;43.666;18.444;2023-08-30T13:22:36;22.50;59.70
65462;DHT22;53236;43.666;18.444;2023-08-30T13:25:03;22.30;59.10
65462;DHT22;53236;43.666;18.444;2023-08-30T13:27:31;22.30;58.30
65462;DHT22;53236;43.666;18.444;2023-08-30T13:29:57;22.60;58.80
65462;DHT22;53236;43.666;18.444;2023-08-30T13:32:23;22.50;60.30
65462;DHT22;53236;43.666;18.444;2023-08-30T13:34:50;22.70;59.50
65462;DHT22;53236;43.666;18.444;2023-08-30T13:37:16;22.50;60.10
65462;DHT22;53236;43.666;18.444;2023-08-30T13:39:42;22.40;60.00
65462;DHT22;53236;43.666;18.444;2023-08-30T13:42:08;22.20;62.00
65462;DHT22;53236;43.666;18.444;2023-08-30T13:44:34;22.30;63.90
65462;DHT22;53236;43.666;18.444;2023-08-30T13:47:05;21.80;62.70
65462;DHT22;53236;43.666;18.444;2023-08-30T13:49:31;21.50;64.60
65462;DHT22;53236;43.666;18.444;2023-08-30T13:51:57;21.20;66.00
65462;DHT22;53236;43.666;18.444;2023-08-30T13:54:23;21.00;67.50
65462;DHT22;53236;43.666;18.444;2023-08-30T13:56:49;21.00;69.30
65462;DHT22;53236;43.666;18.444;2023-08-30T13:59:16;21.20;72.50
65462;DHT22;53236;43.666;18.444;2023-08-30T14:01:42;21.40;74.50
65462;DHT22;53236;43.666;18.444;2023-08-30T14:04:08;21.60;74.40
65462;DHT22;53236;43.666;18.444;2023-08-30T14:06:34;21.70;71.40
65462;DHT22;53236;43.666;18.444;2023-08-30T14:08:59;21.70;73.50
65462;DHT22;53236;43.666;18.444;2023-08-30T14:11:25;21.90;74.90
65462;DHT22;53236;43.666;18.444;2023-08-30T14:13:51;22.00;75.80
65462;DHT22;53236;43.666;18.444;2023-08-30T14:16:17;21.90;74.70
65462;DHT22;53236;43.666;18.444;2023-08-30T14:18:43;21.90;76.50
65462;DHT22;53236;43.666;18.444;2023-08-30T14:21:09;21.60;78.80
65462;DHT22;53236;43.666;18.444;2023-08-30T14:23:35;21.40;83.70
65462;DHT22;53236;43.666;18.444;2023-08-30T14:26:03;21.10;88.80
65462;DHT22;53236;43.666;18.444;2023-08-30T14:28:34;20.50;88.20
65462;DHT22;53236;43.666;18.444;2023-08-30T14:31:01;20.10;89.40
65462;DHT22;53236;43.666;18.444;2023-08-30T14:33:27;19.80;83.30
65462;DHT22;53236;43.666;18.444;2023-08-30T14:35:52;19.50;84.70
65462;DHT22;53236;43.666;18.444;2023-08-30T14:38:19;19.40;85.80
65462;DHT22;53236;43.666;18.444;2023-08-30T14:40:57;19.20;91.90
65462;DHT22;53236;43.666;18.444;2023-08-30T14:43:23;18.90;92.70
65462;DHT22;53236;43.666;18.444;2023-08-30T14:45:49;18.70;95.40
65462;DHT22;53236;43.666;18.444;2023-08-30T14:48:15;18.60;96.30
65462;DHT22;53236;43.666;18.444;2023-08-30T14:50:41;18.50;97.90
65462;DHT22;53236;43.666;18.444;2023-08-30T14:53:07;18.50;98.40
65462;DHT22;53236;43.666;18.444;2023-08-30T14:55:33;18.50;98.00
65462;DHT22;53236;43.666;18.444;2023-08-30T14:57:59;18.50;99.90
65462;DHT22;53236;43.666;18.444;2023-08-30T15:00:25;18.50;96.90
65462;DHT22;53236;43.666;18.444;2023-08-30T15:02:51;18.40;97.00
65462;DHT22;53236;43.666;18.444;2023-08-30T15:05:17;18.40;96.70
65462;DHT22;53236;43.666;18.444;2023-08-30T15:07:43;18.40;96.40
65462;DHT22;53236;43.666;18.444;2023-08-30T15:10:09;18.50;98.90
65462;DHT22;53236;43.666;18.444;2023-08-30T15:12:37;18.40;98.10
65462;DHT22;53236;43.666;18.444;2023-08-30T15:15:03;18.30;99.90
65462;DHT22;53236;43.666;18.444;2023-08-30T15:17:29;18.50;99.90